sensor_id;sensor_type;location;lat;lon;timestamp;P1;durP1;ratioP1;P2;durP2;ratioP2
58260;SDS011;44058;52.898;6.502;2023-05-07T00:01:28;9.68;;;8.00;;
58260;SDS011;44058;52.898;6.502;2023-05-07T00:03:54;9.10;;;7.68;;
58260;SDS011;44058;52.898;6.502;2023-05-07T00:06:21;12.88;;;8.20;;
58260;SDS011;44058;52.898;6.502;2023-05-07T00:08:47;10.65;;;8.45;;
58260;SDS011;44058;52.898;6.502;2023-05-07T00:11:13;9.10;;;6.93;;
58260;SDS011;44058;52.898;6.502;2023-05-07T00:13:39;9.68;;;8.02;;
58260;SDS011;44058;52.898;6.502;2023-05-07T00:16:05;11.77;;;8.43;;
58260;SDS011;44058;52.898;6.502;2023-05-07T00:18:32;8.48;;;7.63;;
58260;SDS011;44058;52.898;6.502;2023-05-07T00:20:58;9.07;;;7.93;;
58260;SDS011;44058;52.898;6.502;2023-05-07T00:23:24;10.13;;;9.05;;
58260;SDS011;44058;52.898;6.502;2023-05-07T00:25:50;10.85;;;9.32;;
58260;SDS011;44058;52.898;6.502;2023-05-07T00:28:16;11.68;;;9.77;;
58260;SDS011;44058;52.898;6.502;2023-05-07T00:30:42;11.80;;;9.82;;
58260;SDS011;44058;52.898;6.502;2023-05-07T00:33:08;11.25;;;9.75;;
58260;SDS011;44058;52.898;6.502;2023-05-07T00:35:34;9.90;;;7.88;;
58260;SDS011;44058;52.898;6.502;2023-05-07T00:38:00;10.57;;;8.95;;
58260;SDS011;44058;52.898;6.502;2023-05-07T00:40:26;12.60;;;9.30;;
58260;SDS011;44058;52.898;6.502;2023-05-07T00:42:52;11.05;;;9.77;;
58260;SDS011;44058;52.898;6.502;2023-05-07T00:45:24;11.77;;;9.30;;
58260;SDS011;44058;52.898;6.502;2023-05-07T00:50:17;12.15;;;10.07;;
58260;SDS011;44058;52.898;6.502;2023-05-07T00:52:44;14.43;;;11.07;;
58260;SDS011;44058;52.898;6.502;2023-05-07T00:55:10;15.85;;;11.73;;
58260;SDS011;44058;52.898;6.502;2023-05-07T00:57:39;14.40;;;11.07;;
58260;SDS011;44058;52.898;6.502;2023-05-07T01:00:06;10.73;;;9.63;;
58260;SDS011;44058;52.898;6.502;2023-05-07T01:02:34;13.02;;;11.20;;
58260;SDS011;44058;52.898;6.502;2023-05-07T01:05:01;17.08;;;12.43;;
58260;SDS011;44058;52.898;6.502;2023-05-07T01:07:29;14.10;;;12.55;;
58260;SDS011;44058;52.898;6.502;2023-05-07T01:09:56;15.57;;;12.35;;
58260;SDS011;44058;52.898;6.502;2023-05-07T01:12:22;16.77;;;12.55;;
58260;SDS011;44058;52.898;6.502;2023-05-07T01:14:49;18.92;;;14.32;;
58260;SDS011;44058;52.898;6.502;2023-05-07T01:17:15;17.25;;;13.57;;
58260;SDS011;44058;52.898;6.502;2023-05-07T01:19:41;17.58;;;13.80;;
58260;SDS011;44058;52.898;6.502;2023-05-07T01:22:08;16.75;;;13.10;;
58260;SDS011;44058;52.898;6.502;2023-05-07T01:24:36;18.25;;;13.75;;
58260;SDS011;44058;52.898;6.502;2023-05-07T01:27:02;15.73;;;13.90;;
58260;SDS011;44058;52.898;6.502;2023-05-07T01:29:28;18.75;;;14.95;;
58260;SDS011;44058;52.898;6.502;2023-05-07T01:31:58;19.98;;;13.98;;
58260;SDS011;44058;52.898;6.502;2023-05-07T01:34:25;17.70;;;14.35;;
58260;SDS011;44058;52.898;6.502;2023-05-07T01:36:52;18.88;;;14.52;;
58260;SDS011;44058;52.898;6.502;2023-05-07T01:39:18;15.65;;;13.07;;
58260;SDS011;44058;52.898;6.502;2023-05-07T01:41:44;17.40;;;13.85;;
58260;SDS011;44058;52.898;6.502;2023-05-07T01:44:10;16.10;;;14.02;;
58260;SDS011;44058;52.898;6.502;2023-05-07T01:46:38;18.05;;;15.07;;
58260;SDS011;44058;52.898;6.502;2023-05-07T01:49:04;17.67;;;14.65;;
58260;SDS011;44058;52.898;6.502;2023-05-07T01:51:30;17.33;;;14.75;;
58260;SDS011;44058;52.898;6.502;2023-05-07T01:53:56;15.75;;;13.35;;
58260;SDS011;44058;52.898;6.502;2023-05-07T01:56:23;18.05;;;14.95;;
58260;SDS011;44058;52.898;6.502;2023-05-07T01:58:50;18.75;;;14.80;;
58260;SDS011;44058;52.898;6.502;2023-05-07T02:01:16;16.55;;;14.52;;
58260;SDS011;44058;52.898;6.502;2023-05-07T02:03:43;18.85;;;14.60;;
58260;SDS011;44058;52.898;6.502;2023-05-07T02:06:10;22.13;;;16.85;;
58260;SDS011;44058;52.898;6.502;2023-05-07T02:08:36;19.17;;;16.45;;
58260;SDS011;44058;52.898;6.502;2023-05-07T02:11:03;20.15;;;16.13;;
58260;SDS011;44058;52.898;6.502;2023-05-07T02:13:29;18.83;;;15.40;;
58260;SDS011;44058;52.898;6.502;2023-05-07T02:15:56;17.90;;;14.88;;
58260;SDS011;44058;52.898;6.502;2023-05-07T02:18:22;18.60;;;15.73;;
58260;SDS011;44058;52.898;6.502;2023-05-07T02:20:48;18.95;;;15.18;;
58260;SDS011;44058;52.898;6.502;2023-05-07T02:23:14;20.23;;;16.05;;
58260;SDS011;44058;52.898;6.502;2023-05-07T02:25:40;19.25;;;15.48;;
58260;SDS011;44058;52.898;6.502;2023-05-07T02:28:06;19.10;;;15.07;;
58260;SDS011;44058;52.898;6.502;2023-05-07T02:30:32;18.33;;;14.93;;
58260;SDS011;44058;52.898;6.502;2023-05-07T02:32:58;18.50;;;15.32;;
58260;SDS011;44058;52.898;6.502;2023-05-07T02:35:24;18.58;;;15.45;;
58260;SDS011;44058;52.898;6.502;2023-05-07T02:37:51;20.05;;;17.05;;
58260;SDS011;44058;52.898;6.502;2023-05-07T02:40:17;20.42;;;16.77;;
58260;SDS011;44058;52.898;6.502;2023-05-07T02:42:43;20.02;;;16.73;;
58260;SDS011;44058;52.898;6.502;2023-05-07T02:45:09;23.23;;;17.92;;
58260;SDS011;44058;52.898;6.502;2023-05-07T02:47:35;19.90;;;17.42;;
58260;SDS011;44058;52.898;6.502;2023-05-07T02:50:02;19.00;;;16.65;;
58260;SDS011;44058;52.898;6.502;2023-05-07T02:52:28;20.00;;;17.02;;
58260;SDS011;44058;52.898;6.502;2023-05-07T02:54:54;23.55;;;18.40;;
58260;SDS011;44058;52.898;6.502;2023-05-07T02:57:21;19.35;;;16.75;;
58260;SDS011;44058;52.898;6.502;2023-05-07T02:59:47;23.42;;;18.63;;
58260;SDS011;44058;52.898;6.502;2023-05-07T03:02:13;20.38;;;16.83;;
58260;SDS011;44058;52.898;6.502;2023-05-07T03:04:39;22.95;;;18.63;;
58260;SDS011;44058;52.898;6.502;2023-05-07T03:07:05;23.13;;;18.55;;
58260;SDS011;44058;52.898;6.502;2023-05-07T03:09:32;22.40;;;17.75;;
58260;SDS011;44058;52.898;6.502;2023-05-07T03:11:58;26.17;;;19.73;;
58260;SDS011;44058;52.898;6.502;2023-05-07T03:14:24;27.42;;;20.40;;
58260;SDS011;44058;52.898;6.502;2023-05-07T03:16:50;26.13;;;20.38;;
58260;SDS011;44058;52.898;6.502;2023-05-07T03:19:16;23.83;;;18.38;;
58260;SDS011;44058;52.898;6.502;2023-05-07T03:21:42;27.92;;;21.02;;
58260;SDS011;44058;52.898;6.502;2023-05-07T03:24:08;25.35;;;20.00;;
58260;SDS011;44058;52.898;6.502;2023-05-07T03:26:34;27.25;;;20.55;;
58260;SDS011;44058;52.898;6.502;2023-05-07T03:29:00;26.63;;;21.35;;
58260;SDS011;44058;52.898;6.502;2023-05-07T03:31:26;26.35;;;20.40;;
58260;SDS011;44058;52.898;6.502;2023-05-07T03:33:53;25.20;;;20.33;;
58260;SDS011;44058;52.898;6.502;2023-05-07T03:36:20;27.17;;;20.65;;
58260;SDS011;44058;52.898;6.502;2023-05-07T03:38:46;29.08;;;20.63;;
58260;SDS011;44058;52.898;6.502;2023-05-07T03:41:12;28.75;;;22.10;;
58260;SDS011;44058;52.898;6.502;2023-05-07T03:43:38;28.13;;;22.48;;
58260;SDS011;44058;52.898;6.502;2023-05-07T03:46:04;32.38;;;23.98;;
58260;SDS011;44058;52.898;6.502;2023-05-07T03:48:31;31.42;;;22.67;;
58260;SDS011;44058;52.898;6.502;2023-05-07T03:50:57;29.92;;;22.73;;
58260;SDS011;44058;52.898;6.502;2023-05-07T03:53:23;30.27;;;23.88;;
58260;SDS011;44058;52.898;6.502;2023-05-07T03:55:49;28.83;;;21.25;;
58260;SDS011;44058;52.898;6.502;2023-05-07T03:58:15;31.25;;;23.67;;
58260;SDS011;44058;52.898;6.502;2023-05-07T04:00:41;30.38;;;22.40;;
58260;SDS011;44058;52.898;6.502;2023-05-07T04:03:08;30.30;;;22.05;;
58260;SDS011;44058;52.898;6.502;2023-05-07T04:05:34;30.50;;;21.83;;
58260;SDS011;44058;52.898;6.502;2023-05-07T04:08:00;32.72;;;24.30;;
58260;SDS011;44058;52.898;6.502;2023-05-07T04:10:28;30.58;;;22.92;;
58260;SDS011;44058;52.898;6.502;2023-05-07T04:12:54;30.45;;;23.23;;
58260;SDS011;44058;52.898;6.502;2023-05-07T04:15:22;28.80;;;23.48;;
58260;SDS011;44058;52.898;6.502;2023-05-07T04:17:48;30.70;;;21.77;;
58260;SDS011;44058;52.898;6.502;2023-05-07T04:20:15;30.17;;;23.63;;
58260;SDS011;44058;52.898;6.502;2023-05-07T04:22:42;29.83;;;22.88;;
58260;SDS011;44058;52.898;6.502;2023-05-07T04:25:08;30.15;;;22.90;;
58260;SDS011;44058;52.898;6.502;2023-05-07T04:27:35;32.20;;;23.30;;
58260;SDS011;44058;52.898;6.502;2023-05-07T04:30:01;28.92;;;22.05;;
58260;SDS011;44058;52.898;6.502;2023-05-07T04:32:28;27.85;;;20.95;;
58260;SDS011;44058;52.898;6.502;2023-05-07T04:34:55;31.83;;;23.65;;
58260;SDS011;44058;52.898;6.502;2023-05-07T04:37:21;27.38;;;20.75;;
58260;SDS011;44058;52.898;6.502;2023-05-07T04:39:47;27.73;;;22.65;;
58260;SDS011;44058;52.898;6.502;2023-05-07T04:42:14;28.10;;;22.52;;
58260;SDS011;44058;52.898;6.502;2023-05-07T04:44:40;30.63;;;22.88;;
58260;SDS011;44058;52.898;6.502;2023-05-07T04:47:06;30.38;;;22.27;;
58260;SDS011;44058;52.898;6.502;2023-05-07T04:49:32;30.52;;;22.38;;
58260;SDS011;44058;52.898;6.502;2023-05-07T04:51:58;28.33;;;21.60;;
58260;SDS011;44058;52.898;6.502;2023-05-07T04:54:25;28.30;;;21.33;;
58260;SDS011;44058;52.898;6.502;2023-05-07T04:56:51;30.80;;;23.33;;
58260;SDS011;44058;52.898;6.502;2023-05-07T04:59:17;26.90;;;20.80;;
58260;SDS011;44058;52.898;6.502;2023-05-07T05:01:46;31.63;;;23.38;;
58260;SDS011;44058;52.898;6.502;2023-05-07T05:04:12;29.08;;;21.30;;
58260;SDS011;44058;52.898;6.502;2023-05-07T05:06:38;24.83;;;20.10;;
58260;SDS011;44058;52.898;6.502;2023-05-07T05:09:05;23.77;;;18.02;;
58260;SDS011;44058;52.898;6.502;2023-05-07T05:11:31;25.85;;;20.02;;
58260;SDS011;44058;52.898;6.502;2023-05-07T05:13:58;25.45;;;19.90;;
58260;SDS011;44058;52.898;6.502;2023-05-07T05:16:25;26.30;;;20.48;;
58260;SDS011;44058;52.898;6.502;2023-05-07T05:18:51;24.70;;;19.60;;
58260;SDS011;44058;52.898;6.502;2023-05-07T05:21:19;24.80;;;19.65;;
58260;SDS011;44058;52.898;6.502;2023-05-07T05:23:45;22.60;;;18.40;;
58260;SDS011;44058;52.898;6.502;2023-05-07T05:26:11;20.70;;;17.88;;
58260;SDS011;44058;52.898;6.502;2023-05-07T05:28:37;22.83;;;17.48;;
58260;SDS011;44058;52.898;6.502;2023-05-07T05:31:04;25.52;;;19.98;;
58260;SDS011;44058;52.898;6.502;2023-05-07T05:33:30;20.98;;;17.27;;
58260;SDS011;44058;52.898;6.502;2023-05-07T05:35:56;26.83;;;18.73;;
58260;SDS011;44058;52.898;6.502;2023-05-07T05:38:22;21.42;;;18.02;;
58260;SDS011;44058;52.898;6.502;2023-05-07T05:40:48;24.02;;;19.20;;
58260;SDS011;44058;52.898;6.502;2023-05-07T05:43:14;23.48;;;17.75;;
58260;SDS011;44058;52.898;6.502;2023-05-07T05:45:41;21.73;;;17.55;;
58260;SDS011;44058;52.898;6.502;2023-05-07T05:48:07;25.80;;;19.13;;
58260;SDS011;44058;52.898;6.502;2023-05-07T05:50:33;23.55;;;18.30;;
58260;SDS011;44058;52.898;6.502;2023-05-07T05:53:02;24.98;;;19.38;;
58260;SDS011;44058;52.898;6.502;2023-05-07T05:55:28;23.05;;;19.02;;
58260;SDS011;44058;52.898;6.502;2023-05-07T05:57:55;25.95;;;17.27;;
58260;SDS011;44058;52.898;6.502;2023-05-07T06:00:21;23.65;;;18.77;;
58260;SDS011;44058;52.898;6.502;2023-05-07T06:02:48;26.40;;;19.13;;
58260;SDS011;44058;52.898;6.502;2023-05-07T06:05:14;22.13;;;18.33;;
58260;SDS011;44058;52.898;6.502;2023-05-07T06:07:40;25.23;;;18.95;;
58260;SDS011;44058;52.898;6.502;2023-05-07T06:10:06;22.83;;;18.65;;
58260;SDS011;44058;52.898;6.502;2023-05-07T06:12:33;23.38;;;18.90;;
58260;SDS011;44058;52.898;6.502;2023-05-07T06:14:59;24.20;;;19.63;;
58260;SDS011;44058;52.898;6.502;2023-05-07T06:17:26;21.95;;;17.08;;
58260;SDS011;44058;52.898;6.502;2023-05-07T06:19:52;22.05;;;19.52;;
58260;SDS011;44058;52.898;6.502;2023-05-07T06:22:18;22.58;;;18.52;;
58260;SDS011;44058;52.898;6.502;2023-05-07T06:24:44;23.83;;;18.98;;
58260;SDS011;44058;52.898;6.502;2023-05-07T06:27:11;23.88;;;19.00;;
58260;SDS011;44058;52.898;6.502;2023-05-07T06:29:37;24.35;;;20.15;;
58260;SDS011;44058;52.898;6.502;2023-05-07T06:32:06;24.25;;;18.50;;
58260;SDS011;44058;52.898;6.502;2023-05-07T06:34:33;20.73;;;17.50;;
58260;SDS011;44058;52.898;6.502;2023-05-07T06:36:59;23.55;;;18.73;;
58260;SDS011;44058;52.898;6.502;2023-05-07T06:39:25;23.65;;;19.63;;
58260;SDS011;44058;52.898;6.502;2023-05-07T06:41:51;23.25;;;19.17;;
58260;SDS011;44058;52.898;6.502;2023-05-07T06:44:17;23.10;;;18.67;;
58260;SDS011;44058;52.898;6.502;2023-05-07T06:46:43;27.88;;;20.33;;
58260;SDS011;44058;52.898;6.502;2023-05-07T06:49:10;26.05;;;19.17;;
58260;SDS011;44058;52.898;6.502;2023-05-07T06:51:36;25.38;;;19.77;;
58260;SDS011;44058;52.898;6.502;2023-05-07T06:54:02;24.10;;;19.88;;
58260;SDS011;44058;52.898;6.502;2023-05-07T06:56:29;24.05;;;19.00;;
58260;SDS011;44058;52.898;6.502;2023-05-07T06:58:55;24.45;;;19.10;;
58260;SDS011;44058;52.898;6.502;2023-05-07T07:01:22;23.10;;;19.10;;
58260;SDS011;44058;52.898;6.502;2023-05-07T07:03:48;23.77;;;18.92;;
58260;SDS011;44058;52.898;6.502;2023-05-07T07:06:14;31.25;;;21.73;;
58260;SDS011;44058;52.898;6.502;2023-05-07T07:08:40;23.33;;;19.45;;
58260;SDS011;44058;52.898;6.502;2023-05-07T07:11:07;24.73;;;19.70;;
58260;SDS011;44058;52.898;6.502;2023-05-07T07:13:34;26.38;;;20.77;;
58260;SDS011;44058;52.898;6.502;2023-05-07T07:16:00;25.90;;;21.02;;
58260;SDS011;44058;52.898;6.502;2023-05-07T07:18:27;27.15;;;21.35;;
58260;SDS011;44058;52.898;6.502;2023-05-07T07:20:53;24.70;;;18.90;;
58260;SDS011;44058;52.898;6.502;2023-05-07T07:23:19;24.10;;;19.77;;
58260;SDS011;44058;52.898;6.502;2023-05-07T07:25:45;24.67;;;19.75;;
58260;SDS011;44058;52.898;6.502;2023-05-07T07:28:11;25.42;;;20.40;;
58260;SDS011;44058;52.898;6.502;2023-05-07T07:30:38;26.25;;;21.70;;
58260;SDS011;44058;52.898;6.502;2023-05-07T07:33:04;23.05;;;19.75;;
58260;SDS011;44058;52.898;6.502;2023-05-07T07:35:33;24.35;;;19.73;;
58260;SDS011;44058;52.898;6.502;2023-05-07T07:37:59;23.77;;;19.08;;
58260;SDS011;44058;52.898;6.502;2023-05-07T07:40:26;27.25;;;20.73;;
58260;SDS011;44058;52.898;6.502;2023-05-07T07:42:53;30.25;;;21.92;;
58260;SDS011;44058;52.898;6.502;2023-05-07T07:45:19;26.17;;;19.60;;
58260;SDS011;44058;52.898;6.502;2023-05-07T07:47:45;26.13;;;20.38;;
58260;SDS011;44058;52.898;6.502;2023-05-07T07:50:12;24.98;;;20.10;;
58260;SDS011;44058;52.898;6.502;2023-05-07T07:52:38;27.60;;;20.35;;
58260;SDS011;44058;52.898;6.502;2023-05-07T07:55:04;25.30;;;19.75;;
58260;SDS011;44058;52.898;6.502;2023-05-07T07:57:30;24.30;;;20.73;;
58260;SDS011;44058;52.898;6.502;2023-05-07T07:59:56;29.92;;;22.30;;
58260;SDS011;44058;52.898;6.502;2023-05-07T08:02:22;24.88;;;20.13;;
58260;SDS011;44058;52.898;6.502;2023-05-07T08:04:48;26.83;;;21.83;;
58260;SDS011;44058;52.898;6.502;2023-05-07T08:07:15;24.73;;;20.13;;
58260;SDS011;44058;52.898;6.502;2023-05-07T08:09:43;23.88;;;19.52;;
58260;SDS011;44058;52.898;6.502;2023-05-07T08:12:09;31.60;;;20.88;;
58260;SDS011;44058;52.898;6.502;2023-05-07T08:14:36;25.83;;;21.00;;
58260;SDS011;44058;52.898;6.502;2023-05-07T08:17:02;26.35;;;21.20;;
58260;SDS011;44058;52.898;6.502;2023-05-07T08:19:28;25.05;;;19.60;;
58260;SDS011;44058;52.898;6.502;2023-05-07T08:21:55;25.45;;;20.17;;
58260;SDS011;44058;52.898;6.502;2023-05-07T08:24:21;27.58;;;20.63;;
58260;SDS011;44058;52.898;6.502;2023-05-07T08:26:47;28.42;;;20.98;;
58260;SDS011;44058;52.898;6.502;2023-05-07T08:29:14;27.73;;;20.88;;
58260;SDS011;44058;52.898;6.502;2023-05-07T08:31:40;27.45;;;22.00;;
58260;SDS011;44058;52.898;6.502;2023-05-07T08:34:06;25.92;;;20.70;;
58260;SDS011;44058;52.898;6.502;2023-05-07T08:36:33;26.63;;;21.27;;
58260;SDS011;44058;52.898;6.502;2023-05-07T08:38:59;27.48;;;22.27;;
58260;SDS011;44058;52.898;6.502;2023-05-07T08:41:25;25.67;;;20.80;;
58260;SDS011;44058;52.898;6.502;2023-05-07T08:43:52;28.00;;;22.65;;
58260;SDS011;44058;52.898;6.502;2023-05-07T08:46:19;28.45;;;21.63;;
58260;SDS011;44058;52.898;6.502;2023-05-07T08:48:48;26.52;;;21.05;;
58260;SDS011;44058;52.898;6.502;2023-05-07T08:51:19;26.42;;;19.95;;
58260;SDS011;44058;52.898;6.502;2023-05-07T08:53:45;26.40;;;21.65;;
58260;SDS011;44058;52.898;6.502;2023-05-07T08:56:13;27.20;;;21.83;;
58260;SDS011;44058;52.898;6.502;2023-05-07T08:58:45;26.23;;;21.25;;
58260;SDS011;44058;52.898;6.502;2023-05-07T09:01:14;25.60;;;21.55;;
58260;SDS011;44058;52.898;6.502;2023-05-07T09:03:41;26.33;;;22.00;;
58260;SDS011;44058;52.898;6.502;2023-05-07T09:08:36;27.65;;;22.10;;
58260;SDS011;44058;52.898;6.502;2023-05-07T09:11:02;24.25;;;19.45;;
58260;SDS011;44058;52.898;6.502;2023-05-07T09:13:28;28.33;;;22.63;;
58260;SDS011;44058;52.898;6.502;2023-05-07T09:15:56;24.98;;;20.67;;
58260;SDS011;44058;52.898;6.502;2023-05-07T09:18:25;24.65;;;21.27;;
58260;SDS011;44058;52.898;6.502;2023-05-07T09:20:51;22.92;;;19.65;;
58260;SDS011;44058;52.898;6.502;2023-05-07T09:23:17;27.13;;;20.83;;
58260;SDS011;44058;52.898;6.502;2023-05-07T09:25:43;25.92;;;21.70;;
58260;SDS011;44058;52.898;6.502;2023-05-07T09:28:09;24.75;;;20.58;;
58260;SDS011;44058;52.898;6.502;2023-05-07T09:30:36;25.52;;;21.58;;
58260;SDS011;44058;52.898;6.502;2023-05-07T09:33:02;24.33;;;21.40;;
58260;SDS011;44058;52.898;6.502;2023-05-07T09:35:29;24.17;;;19.85;;
58260;SDS011;44058;52.898;6.502;2023-05-07T09:37:56;26.23;;;21.48;;
58260;SDS011;44058;52.898;6.502;2023-05-07T09:40:23;23.08;;;20.27;;
58260;SDS011;44058;52.898;6.502;2023-05-07T09:42:49;23.48;;;20.55;;
58260;SDS011;44058;52.898;6.502;2023-05-07T09:45:16;23.70;;;20.98;;
58260;SDS011;44058;52.898;6.502;2023-05-07T09:47:46;23.98;;;21.30;;
58260;SDS011;44058;52.898;6.502;2023-05-07T09:50:14;26.23;;;20.58;;
58260;SDS011;44058;52.898;6.502;2023-05-07T09:52:41;27.10;;;20.90;;
58260;SDS011;44058;52.898;6.502;2023-05-07T09:55:08;23.27;;;20.05;;
58260;SDS011;44058;52.898;6.502;2023-05-07T09:57:34;22.60;;;19.77;;
58260;SDS011;44058;52.898;6.502;2023-05-07T10:00:02;22.52;;;19.58;;
58260;SDS011;44058;52.898;6.502;2023-05-07T10:02:31;23.60;;;19.90;;
58260;SDS011;44058;52.898;6.502;2023-05-07T10:05:01;22.67;;;19.95;;
58260;SDS011;44058;52.898;6.502;2023-05-07T10:07:28;22.25;;;19.77;;
58260;SDS011;44058;52.898;6.502;2023-05-07T10:09:55;23.95;;;20.60;;
58260;SDS011;44058;52.898;6.502;2023-05-07T10:12:21;22.80;;;20.17;;
58260;SDS011;44058;52.898;6.502;2023-05-07T10:14:47;20.58;;;18.15;;
58260;SDS011;44058;52.898;6.502;2023-05-07T10:17:16;20.67;;;18.25;;
58260;SDS011;44058;52.898;6.502;2023-05-07T10:19:44;23.00;;;18.92;;
58260;SDS011;44058;52.898;6.502;2023-05-07T10:22:10;21.90;;;18.65;;
58260;SDS011;44058;52.898;6.502;2023-05-07T10:24:37;21.77;;;18.63;;
58260;SDS011;44058;52.898;6.502;2023-05-07T10:27:12;24.42;;;19.02;;
58260;SDS011;44058;52.898;6.502;2023-05-07T10:30:23;21.90;;;19.45;;
58260;SDS011;44058;52.898;6.502;2023-05-07T10:32:48;20.58;;;18.33;;
58260;SDS011;44058;52.898;6.502;2023-05-07T10:35:24;20.10;;;17.50;;
58260;SDS011;44058;52.898;6.502;2023-05-07T10:37:51;20.63;;;18.42;;
58260;SDS011;44058;52.898;6.502;2023-05-07T10:40:18;20.75;;;18.15;;
58260;SDS011;44058;52.898;6.502;2023-05-07T10:42:58;21.35;;;17.27;;
58260;SDS011;44058;52.898;6.502;2023-05-07T10:45:25;19.85;;;17.63;;
58260;SDS011;44058;52.898;6.502;2023-05-07T10:50:36;20.90;;;18.13;;
58260;SDS011;44058;52.898;6.502;2023-05-07T10:55:41;22.23;;;17.77;;
58260;SDS011;44058;52.898;6.502;2023-05-07T10:58:26;20.70;;;17.52;;
58260;SDS011;44058;52.898;6.502;2023-05-07T11:00:56;17.77;;;15.98;;
58260;SDS011;44058;52.898;6.502;2023-05-07T11:03:22;19.02;;;15.85;;
58260;SDS011;44058;52.898;6.502;2023-05-07T11:06:08;17.15;;;15.35;;
58260;SDS011;44058;52.898;6.502;2023-05-07T11:11:19;18.23;;;16.30;;
58260;SDS011;44058;52.898;6.502;2023-05-07T11:13:46;17.33;;;15.55;;
58260;SDS011;44058;52.898;6.502;2023-05-07T11:16:31;17.33;;;15.63;;
58260;SDS011;44058;52.898;6.502;2023-05-07T11:21:34;18.40;;;16.48;;
58260;SDS011;44058;52.898;6.502;2023-05-07T11:24:01;20.50;;;15.93;;
58260;SDS011;44058;52.898;6.502;2023-05-07T11:26:28;17.10;;;15.40;;
58260;SDS011;44058;52.898;6.502;2023-05-07T11:28:55;18.10;;;16.20;;
58260;SDS011;44058;52.898;6.502;2023-05-07T11:31:22;15.45;;;13.93;;
58260;SDS011;44058;52.898;6.502;2023-05-07T11:33:49;15.68;;;14.00;;
58260;SDS011;44058;52.898;6.502;2023-05-07T11:36:15;17.05;;;15.15;;
58260;SDS011;44058;52.898;6.502;2023-05-07T11:38:41;16.17;;;14.63;;
58260;SDS011;44058;52.898;6.502;2023-05-07T11:41:08;16.35;;;13.98;;
58260;SDS011;44058;52.898;6.502;2023-05-07T11:43:34;15.52;;;13.93;;
58260;SDS011;44058;52.898;6.502;2023-05-07T11:46:10;16.50;;;14.88;;
58260;SDS011;44058;52.898;6.502;2023-05-07T11:48:37;20.45;;;16.20;;
58260;SDS011;44058;52.898;6.502;2023-05-07T11:51:04;17.38;;;15.23;;
58260;SDS011;44058;52.898;6.502;2023-05-07T11:53:37;16.65;;;14.80;;
58260;SDS011;44058;52.898;6.502;2023-05-07T11:56:07;17.95;;;16.15;;
58260;SDS011;44058;52.898;6.502;2023-05-07T11:58:34;16.33;;;14.75;;
58260;SDS011;44058;52.898;6.502;2023-05-07T12:01:00;18.23;;;16.33;;
58260;SDS011;44058;52.898;6.502;2023-05-07T12:03:26;17.42;;;15.73;;
58260;SDS011;44058;52.898;6.502;2023-05-07T12:05:52;18.33;;;15.90;;
58260;SDS011;44058;52.898;6.502;2023-05-07T12:08:19;17.55;;;15.73;;
58260;SDS011;44058;52.898;6.502;2023-05-07T12:10:46;17.42;;;15.63;;
58260;SDS011;44058;52.898;6.502;2023-05-07T12:13:19;17.90;;;16.00;;
58260;SDS011;44058;52.898;6.502;2023-05-07T12:15:45;17.83;;;15.90;;
58260;SDS011;44058;52.898;6.502;2023-05-07T12:18:12;16.45;;;14.85;;
58260;SDS011;44058;52.898;6.502;2023-05-07T12:20:39;16.48;;;14.85;;
58260;SDS011;44058;52.898;6.502;2023-05-07T12:23:05;19.17;;;17.20;;
58260;SDS011;44058;52.898;6.502;2023-05-07T12:25:32;16.10;;;14.48;;
58260;SDS011;44058;52.898;6.502;2023-05-07T12:28:00;16.15;;;14.55;;
58260;SDS011;44058;52.898;6.502;2023-05-07T12:30:26;16.05;;;14.43;;
58260;SDS011;44058;52.898;6.502;2023-05-07T12:32:53;17.05;;;15.32;;
58260;SDS011;44058;52.898;6.502;2023-05-07T12:35:26;15.80;;;14.18;;
58260;SDS011;44058;52.898;6.502;2023-05-07T12:37:55;16.63;;;14.80;;
58260;SDS011;44058;52.898;6.502;2023-05-07T12:40:24;15.55;;;13.95;;
58260;SDS011;44058;52.898;6.502;2023-05-07T12:42:52;17.75;;;16.05;;
58260;SDS011;44058;52.898;6.502;2023-05-07T12:45:20;16.15;;;14.55;;
58260;SDS011;44058;52.898;6.502;2023-05-07T12:47:46;17.83;;;15.63;;
58260;SDS011;44058;52.898;6.502;2023-05-07T12:50:13;16.27;;;14.13;;
58260;SDS011;44058;52.898;6.502;2023-05-07T12:52:39;16.73;;;14.75;;
58260;SDS011;44058;52.898;6.502;2023-05-07T12:55:06;18.15;;;15.30;;
58260;SDS011;44058;52.898;6.502;2023-05-07T12:57:42;15.20;;;13.70;;
58260;SDS011;44058;52.898;6.502;2023-05-07T13:00:08;13.88;;;12.55;;
58260;SDS011;44058;52.898;6.502;2023-05-07T13:02:38;14.38;;;12.88;;
58260;SDS011;44058;52.898;6.502;2023-05-07T13:05:04;15.73;;;14.13;;
58260;SDS011;44058;52.898;6.502;2023-05-07T13:07:30;14.57;;;13.07;;
58260;SDS011;44058;52.898;6.502;2023-05-07T13:09:56;15.10;;;13.65;;
58260;SDS011;44058;52.898;6.502;2023-05-07T13:12:22;15.50;;;13.93;;
58260;SDS011;44058;52.898;6.502;2023-05-07T13:14:49;15.57;;;14.05;;
58260;SDS011;44058;52.898;6.502;2023-05-07T13:17:15;16.02;;;14.40;;
58260;SDS011;44058;52.898;6.502;2023-05-07T13:19:41;15.38;;;13.77;;
58260;SDS011;44058;52.898;6.502;2023-05-07T13:22:08;19.02;;;14.50;;
58260;SDS011;44058;52.898;6.502;2023-05-07T13:24:34;15.57;;;13.75;;
58260;SDS011;44058;52.898;6.502;2023-05-07T13:27:00;14.90;;;13.38;;
58260;SDS011;44058;52.898;6.502;2023-05-07T13:29:26;15.00;;;13.45;;
58260;SDS011;44058;52.898;6.502;2023-05-07T13:31:58;15.13;;;13.57;;
58260;SDS011;44058;52.898;6.502;2023-05-07T13:34:25;14.48;;;12.85;;
58260;SDS011;44058;52.898;6.502;2023-05-07T13:36:51;14.93;;;13.45;;
58260;SDS011;44058;52.898;6.502;2023-05-07T13:39:17;13.15;;;11.85;;
58260;SDS011;44058;52.898;6.502;2023-05-07T13:41:43;13.70;;;12.40;;
58260;SDS011;44058;52.898;6.502;2023-05-07T13:44:09;15.43;;;14.00;;
58260;SDS011;44058;52.898;6.502;2023-05-07T13:46:36;16.30;;;13.40;;
58260;SDS011;44058;52.898;6.502;2023-05-07T13:49:02;13.75;;;12.45;;
58260;SDS011;44058;52.898;6.502;2023-05-07T13:51:28;14.85;;;13.15;;
58260;SDS011;44058;52.898;6.502;2023-05-07T13:53:54;14.93;;;13.50;;
58260;SDS011;44058;52.898;6.502;2023-05-07T13:56:20;15.88;;;14.38;;
58260;SDS011;44058;52.898;6.502;2023-05-07T13:58:47;14.18;;;12.73;;
58260;SDS011;44058;52.898;6.502;2023-05-07T14:01:13;14.90;;;12.77;;
58260;SDS011;44058;52.898;6.502;2023-05-07T14:03:39;13.48;;;12.13;;
58260;SDS011;44058;52.898;6.502;2023-05-07T14:06:05;14.85;;;13.35;;
58260;SDS011;44058;52.898;6.502;2023-05-07T14:08:31;13.68;;;12.27;;
58260;SDS011;44058;52.898;6.502;2023-05-07T14:10:57;14.02;;;12.73;;
58260;SDS011;44058;52.898;6.502;2023-05-07T14:13:23;14.05;;;12.65;;
58260;SDS011;44058;52.898;6.502;2023-05-07T14:15:50;14.32;;;12.82;;
58260;SDS011;44058;52.898;6.502;2023-05-07T14:18:16;13.77;;;12.57;;
58260;SDS011;44058;52.898;6.502;2023-05-07T14:20:42;14.32;;;13.02;;
58260;SDS011;44058;52.898;6.502;2023-05-07T14:23:12;14.85;;;13.45;;
58260;SDS011;44058;52.898;6.502;2023-05-07T14:25:38;13.75;;;12.45;;
58260;SDS011;44058;52.898;6.502;2023-05-07T14:28:04;15.00;;;13.43;;
58260;SDS011;44058;52.898;6.502;2023-05-07T14:30:30;16.65;;;13.82;;
58260;SDS011;44058;52.898;6.502;2023-05-07T14:32:56;13.48;;;12.15;;
58260;SDS011;44058;52.898;6.502;2023-05-07T14:35:22;13.63;;;12.18;;
58260;SDS011;44058;52.898;6.502;2023-05-07T14:37:48;13.55;;;12.35;;